Time;durP1;ratioP1;P1;durP2;ratioP2;P2;SDS_P1;SDS_P2;PMS_P1;PMS_P2;Temp;Humidity;BMP_temperature;BMP_pressure;BME280_temperature;BME280_humidity;BME280_pressure;Samples;Min_cycle;Max_cycle;Signal;HPM_P1;HPM_P2
2020/12/02 00:02:29;;;;;;;39.07;19.03;;;5.70;99.90;;;;;;5031821;28;20237;-66
2020/12/02 00:04:59;;;;;;;37.37;17.17;;;5.70;99.90;;;;;;5031733;28;20178;-66
2020/12/02 00:07:30;;;;;;;38.70;18.20;;;5.70;99.90;;;;;;5031876;28;20187;-65
2020/12/02 00:09:57;;;;;;;35.13;18.53;;;5.70;99.90;;;;;;5031242;28;20656;-66
2020/12/02 00:12:23;;;;;;;40.60;19.20;;;5.80;99.90;;;;;;5031898;28;20180;-66
2020/12/02 00:14:49;;;;;;;38.20;17.80;;;5.80;99.90;;;;;;5031540;28;20564;-66
2020/12/02 00:17:20;;;;;;;37.37;17.83;;;5.70;99.90;;;;;;5031651;28;20171;-65
2020/12/02 00:19:47;;;;;;;39.80;18.27;;;5.80;99.90;;;;;;5031153;28;20187;-66
2020/12/02 00:22:16;;;;;;;35.30;17.67;;;5.80;99.90;;;;;;5031527;28;20279;-65
2020/12/02 00:24:42;;;;;;;33.50;16.67;;;5.90;99.90;;;;;;5031860;28;20256;-64
2020/12/02 00:27:15;;;;;;;34.73;17.33;;;6.00;99.90;;;;;;5033174;28;20186;-66
2020/12/02 00:29:41;;;;;;;37.73;16.17;;;5.90;99.90;;;;;;5031879;28;20211;-65
2020/12/02 00:32:07;;;;;;;30.73;17.37;;;6.00;99.90;;;;;;5032041;28;20182;-66
2020/12/02 00:34:33;;;;;;;38.17;16.87;;;6.00;99.90;;;;;;5031256;28;20282;-64
2020/12/02 00:36:58;;;;;;;28.43;15.50;;;6.00;99.90;;;;;;5031652;28;20535;-66
2020/12/02 00:39:24;;;;;;;37.47;17.80;;;5.90;99.90;;;;;;5031186;28;20214;-66
2020/12/02 00:41:50;;;;;;;38.03;16.73;;;6.00;99.90;;;;;;5030846;28;20203;-65
2020/12/02 00:44:16;;;;;;;33.77;15.30;;;6.00;99.90;;;;;;5031109;28;20621;-65
2020/12/02 00:46:47;;;;;;;33.23;17.40;;;6.10;99.90;;;;;;5031092;28;20198;-66
2020/12/02 00:49:14;;;;;;;29.27;16.30;;;6.10;99.90;;;;;;5031583;28;20671;-66
2020/12/02 00:51:40;;;;;;;36.40;17.63;;;6.00;99.90;;;;;;5030536;28;20501;-64
2020/12/02 00:54:07;;;;;;;38.57;17.47;;;6.00;99.90;;;;;;5030112;28;20199;-65
2020/12/02 00:56:32;;;;;;;42.30;17.13;;;6.00;99.90;;;;;;5031042;28;20321;-66
2020/12/02 00:59:10;;;;;;;35.10;16.30;;;6.00;99.90;;;;;;5031336;28;20218;-66
2020/12/02 01:01:59;;;;;;;34.93;16.23;;;6.00;99.90;;;;;;5030584;28;20277;-66
2020/12/02 01:04:25;;;;;;;33.63;16.83;;;5.90;99.90;;;;;;5031157;28;20621;-66
2020/12/02 01:06:53;;;;;;;46.37;19.77;;;6.00;99.90;;;;;;5031019;28;20274;-66
2020/12/02 01:09:19;;;;;;;31.13;17.63;;;5.90;99.90;;;;;;5031223;28;20235;-65
2020/12/02 01:11:46;;;;;;;38.63;17.90;;;5.90;99.90;;;;;;5030505;28;20175;-66
2020/12/02 01:14:16;;;;;;;39.63;17.27;;;5.90;99.90;;;;;;5031283;28;20223;-66
2020/12/02 01:16:46;;;;;;;38.80;18.30;;;5.90;99.90;;;;;;5030993;28;20230;-66
2020/12/02 01:19:21;;;;;;;39.00;17.87;;;5.90;99.90;;;;;;5031366;28;20641;-66
2020/12/02 01:21:53;;;;;;;38.00;18.87;;;5.90;99.90;;;;;;5030542;28;20175;-66
2020/12/02 01:24:24;;;;;;;34.80;17.37;;;5.90;99.90;;;;;;5031168;28;20246;-66
2020/12/02 01:26:56;;;;;;;35.87;16.50;;;5.90;99.90;;;;;;5030919;28;20184;-66
2020/12/02 01:29:24;;;;;;;32.83;18.10;;;5.90;99.90;;;;;;5031230;28;20611;-66
2020/12/02 01:31:55;;;;;;;35.93;17.17;;;6.00;99.90;;;;;;5030359;28;20176;-66
2020/12/02 01:34:21;;;;;;;38.53;17.33;;;6.00;99.90;;;;;;5011222;28;20188;-66
2020/12/02 01:36:58;;;;;;;43.83;18.83;;;6.10;99.90;;;;;;5011515;28;20195;-66
2020/12/02 01:39:28;;;;;;;33.70;16.53;;;6.20;99.90;;;;;;5031135;28;20198;-66
2020/12/02 01:41:54;;;;;;;35.63;16.67;;;6.10;99.90;;;;;;5030438;28;20221;-66
2020/12/02 01:44:19;;;;;;;35.50;17.27;;;6.10;99.90;;;;;;5030748;28;20296;-65
2020/12/02 01:47:16;;;;;;;34.37;18.80;;;6.10;99.90;;;;;;5030709;28;20199;-65
2020/12/02 01:50:22;;;;;;;34.67;17.70;;;6.10;99.90;;;;;;5030410;28;20218;-66
2020/12/02 01:52:54;;;;;;;34.23;16.47;;;6.10;99.90;;;;;;5031396;28;20257;-66
2020/12/02 01:55:26;;;;;;;31.30;17.63;;;6.00;99.90;;;;;;5034499;28;20172;-66
2020/12/02 01:57:56;;;;;;;35.23;17.50;;;6.00;99.90;;;;;;5034055;28;20183;-65
2020/12/02 02:00:27;;;;;;;31.70;18.03;;;6.00;99.90;;;;;;5034133;28;20183;-65
2020/12/02 02:03:10;;;;;;;37.47;18.43;;;6.00;99.90;;;;;;5033254;28;20261;-64
2020/12/02 02:06:03;;;;;;;38.17;17.97;;;6.00;99.90;;;;;;5014541;28;20447;-65
2020/12/02 02:08:31;;;;;;;33.03;15.43;;;6.00;99.90;;;;;;5019971;28;20218;-66
2020/12/02 02:11:04;;;;;;;37.30;17.93;;;6.10;99.90;;;;;;5033970;28;20180;-66
2020/12/02 02:14:10;;;;;;;33.97;17.07;;;6.10;99.90;;;;;;5033709;28;20274;-66
2020/12/02 02:16:42;;;;;;;34.57;17.80;;;6.20;99.90;;;;;;5025789;28;20199;-64
2020/12/02 02:19:22;;;;;;;31.53;16.23;;;6.20;99.90;;;;;;5033673;28;20214;-65
2020/12/02 02:21:57;;;;;;;36.83;17.40;;;6.10;99.90;;;;;;5033510;28;20229;-65
2020/12/02 02:24:23;;;;;;;34.87;17.50;;;6.20;99.90;;;;;;5033674;28;20290;-65
2020/12/02 02:26:51;;;;;;;31.97;16.60;;;6.20;99.90;;;;;;5034069;28;20182;-66
2020/12/02 02:29:26;;;;;;;32.20;16.00;;;6.20;99.90;;;;;;5033499;28;20613;-65
2020/12/02 02:32:01;;;;;;;35.37;18.60;;;6.10;99.90;;;;;;5033313;28;20180;-66
2020/12/02 02:34:29;;;;;;;40.47;18.17;;;6.10;99.90;;;;;;5033443;28;20201;-66
2020/12/02 02:36:57;;;;;;;39.07;16.73;;;6.10;99.90;;;;;;5032472;28;20180;-65
2020/12/02 02:39:23;;;;;;;31.43;16.93;;;6.10;99.90;;;;;;5033295;28;20191;-66
2020/12/02 02:41:56;;;;;;;33.83;17.27;;;6.10;99.90;;;;;;5032554;28;20287;-66
2020/12/02 02:44:22;;;;;;;33.17;16.30;;;6.10;99.90;;;;;;5033112;28;20219;-66
2020/12/02 02:46:49;;;;;;;32.10;16.10;;;6.10;99.90;;;;;;5033362;28;20656;-66
2020/12/02 02:49:15;;;;;;;30.23;16.43;;;6.20;99.90;;;;;;5033558;28;20549;-65
2020/12/02 02:51:41;;;;;;;38.57;16.63;;;6.20;99.90;;;;;;5033079;28;20182;-66
2020/12/02 02:54:06;;;;;;;32.20;15.63;;;6.20;99.90;;;;;;5032879;28;20211;-66
2020/12/02 02:56:32;;;;;;;32.77;16.13;;;6.20;99.90;;;;;;5033258;28;20250;-66
2020/12/02 02:58:57;;;;;;;31.17;15.63;;;6.20;99.90;;;;;;5032906;28;20191;-66
2020/12/02 03:01:23;;;;;;;28.90;15.53;;;6.20;99.90;;;;;;5032688;28;20182;-65
2020/12/02 03:03:48;;;;;;;26.13;15.13;;;6.20;99.90;;;;;;5032786;28;20210;-66
2020/12/02 03:06:14;;;;;;;33.53;15.77;;;6.20;99.90;;;;;;5032972;28;20179;-66
2020/12/02 03:08:40;;;;;;;31.37;15.47;;;6.20;99.90;;;;;;5032424;28;20556;-66
2020/12/02 03:11:11;;;;;;;31.80;15.03;;;6.10;99.90;;;;;;5032837;28;20184;-66
2020/12/02 03:13:47;;;;;;;24.60;13.77;;;6.20;99.90;;;;;;5031283;28;20191;-65
2020/12/02 03:16:18;;;;;;;28.87;14.13;;;6.10;99.90;;;;;;5032574;28;20238;-66
2020/12/02 03:18:46;;;;;;;28.07;14.33;;;6.10;99.90;;;;;;5032749;28;20366;-65
2020/12/02 03:21:15;;;;;;;28.63;14.20;;;6.00;99.90;;;;;;5032318;28;20187;-65
2020/12/02 03:23:41;;;;;;;28.70;13.90;;;5.90;99.90;;;;;;5032601;28;20207;-66
2020/12/02 03:26:10;;;;;;;23.50;12.63;;;5.90;99.90;;;;;;5032235;28;20186;-64
2020/12/02 03:28:36;;;;;;;26.93;13.80;;;5.90;99.90;;;;;;5032459;28;20282;-66
2020/12/02 03:31:04;;;;;;;29.00;13.77;;;5.90;99.90;;;;;;5032140;28;20624;-65
2020/12/02 03:33:29;;;;;;;22.10;13.70;;;5.90;99.90;;;;;;5032433;28;20274;-66
2020/12/02 03:35:56;;;;;;;29.73;14.40;;;5.90;99.90;;;;;;5032067;28;20283;-65
2020/12/02 03:38:23;;;;;;;25.20;14.47;;;5.90;99.90;;;;;;5032475;28;20672;-65
2020/12/02 03:40:49;;;;;;;27.63;14.00;;;5.90;99.90;;;;;;5031785;28;20233;-65
2020/12/02 03:43:15;;;;;;;25.47;14.30;;;5.90;99.90;;;;;;5032219;28;20207;-64
2020/12/02 03:45:43;;;;;;;25.40;12.23;;;5.90;99.90;;;;;;5030779;28;20516;-65
2020/12/02 03:48:11;;;;;;;28.70;14.23;;;5.90;99.90;;;;;;5032105;28;20178;-65
2020/12/02 03:50:38;;;;;;;25.17;14.20;;;5.90;99.90;;;;;;5031584;28;20188;-66
2020/12/02 03:53:05;;;;;;;29.33;14.70;;;5.90;99.90;;;;;;5032156;28;20192;-65
2020/12/02 03:55:31;;;;;;;24.90;14.10;;;5.90;99.90;;;;;;5031762;28;20250;-66
2020/12/02 03:57:56;;;;;;;25.30;13.37;;;6.00;99.90;;;;;;5032050;28;20176;-64
2020/12/02 04:00:22;;;;;;;27.20;14.27;;;5.90;99.90;;;;;;5031506;28;20180;-65
2020/12/02 04:02:48;;;;;;;28.33;15.60;;;5.90;99.90;;;;;;5031934;28;20206;-65
2020/12/02 04:05:13;;;;;;;38.43;20.57;;;5.90;99.90;;;;;;5031784;28;20672;-66
2020/12/02 04:07:39;;;;;;;26.40;14.57;;;5.90;99.90;;;;;;5031882;28;20176;-64
2020/12/02 04:10:05;;;;;;;23.60;14.77;;;5.90;99.90;;;;;;5031103;28;20215;-65
2020/12/02 04:12:31;;;;;;;29.33;16.40;;;5.90;99.90;;;;;;5032228;28;20261;-66
2020/12/02 04:14:57;;;;;;;28.50;15.90;;;5.90;99.90;;;;;;5031391;28;20259;-66
2020/12/02 04:17:22;;;;;;;24.23;15.20;;;5.90;99.90;;;;;;5031608;28;20521;-65
2020/12/02 04:19:48;;;;;;;25.20;13.70;;;5.90;99.90;;;;;;5031810;28;20183;-65
2020/12/02 04:22:14;;;;;;;25.37;12.77;;;6.00;99.90;;;;;;5031137;28;20652;-65
2020/12/02 04:24:39;;;;;;;22.20;13.03;;;6.00;99.90;;;;;;5030038;28;20823;-65
2020/12/02 04:27:05;;;;;;;19.87;11.47;;;5.90;99.90;;;;;;5031738;28;20168;-65
2020/12/02 04:29:31;;;;;;;22.87;12.20;;;5.90;99.90;;;;;;5031195;28;20195;-65
2020/12/02 04:31:57;;;;;;;20.87;12.03;;;6.00;99.90;;;;;;5031387;28;20199;-65
2020/12/02 04:34:22;;;;;;;20.17;11.57;;;5.90;99.90;;;;;;5031281;28;20233;-65
2020/12/02 04:36:49;;;;;;;22.57;12.80;;;5.90;99.90;;;;;;5031547;28;20611;-66
2020/12/02 04:39:15;;;;;;;25.63;11.67;;;5.90;99.90;;;;;;5031292;28;20237;-66
2020/12/02 04:41:41;;;;;;;22.07;12.63;;;5.80;99.90;;;;;;5031113;28;20316;-66
2020/12/02 04:44:09;;;;;;;17.20;10.80;;;5.80;99.90;;;;;;5031396;28;20265;-65
2020/12/02 04:46:34;;;;;;;20.83;11.83;;;5.80;99.90;;;;;;5031384;28;20264;-66
2020/12/02 04:49:23;;;;;;;17.70;11.70;;;5.80;99.90;;;;;;5031193;28;20293;-67
2020/12/02 04:51:53;;;;;;;24.97;13.30;;;5.80;99.90;;;;;;5030816;28;20215;-66
2020/12/02 04:54:19;;;;;;;21.23;12.60;;;5.90;99.90;;;;;;5031280;28;20192;-66
2020/12/02 04:56:47;;;;;;;24.97;12.90;;;5.90;99.90;;;;;;5031291;28;20225;-65
2020/12/02 04:59:13;;;;;;;21.03;11.80;;;5.90;99.90;;;;;;5031113;28;20175;-65
2020/12/02 05:01:52;;;;;;;21.07;11.70;;;5.90;99.90;;;;;;5030969;28;20203;-65
2020/12/02 05:04:24;;;;;;;20.10;11.80;;;5.80;99.90;;;;;;5030946;28;20285;-65
2020/12/02 05:07:06;;;;;;;17.77;11.20;;;5.80;99.90;;;;;;5031494;28;20224;-65
2020/12/02 05:09:34;;;;;;;20.57;11.70;;;5.80;99.90;;;;;;5030891;28;20229;-66
2020/12/02 05:12:04;;;;;;;22.17;11.67;;;5.80;99.90;;;;;;5030838;28;20172;-65
2020/12/02 05:14:42;;;;;;;20.80;12.13;;;5.80;99.90;;;;;;5029542;28;20199;-65
2020/12/02 05:17:17;;;;;;;17.80;11.27;;;5.90;99.90;;;;;;5030883;28;20212;-66
2020/12/02 05:19:44;;;;;;;19.53;11.57;;;5.90;99.90;;;;;;5031131;28;20174;-65
2020/12/02 05:22:13;;;;;;;19.17;11.77;;;5.90;99.90;;;;;;5030534;28;20168;-66
2020/12/02 05:24:43;;;;;;;17.13;10.30;;;5.90;99.90;;;;;;5011251;28;20202;-66
2020/12/02 05:27:13;;;;;;;17.03;11.20;;;5.90;99.90;;;;;;5014112;28;20169;-65
2020/12/02 05:30:19;;;;;;;17.93;11.00;;;5.90;99.90;;;;;;5034691;28;20207;-66
2020/12/02 05:33:12;;;;;;;18.60;11.50;;;6.00;99.90;;;;;;5034259;28;20171;-65
2020/12/02 05:36:19;;;;;;;20.30;12.10;;;6.00;99.90;;;;;;5034719;28;20570;-65
2020/12/02 05:38:57;;;;;;;18.97;10.70;;;6.00;99.90;;;;;;5013546;28;20225;-66
2020/12/02 05:41:26;;;;;;;17.23;10.33;;;6.00;99.90;;;;;;5034334;28;20574;-66
2020/12/02 05:43:54;;;;;;;18.83;11.27;;;5.90;99.90;;;;;;5034020;28;20704;-66
2020/12/02 05:46:39;;;;;;;18.13;11.33;;;5.80;99.90;;;;;;5034438;28;20275;-65
2020/12/02 05:49:10;;;;;;;18.63;12.03;;;5.80;99.90;;;;;;5034109;28;20253;-65
2020/12/02 05:51:37;;;;;;;17.87;11.37;;;5.80;99.90;;;;;;5033884;28;20564;-66
2020/12/02 05:54:08;;;;;;;21.50;11.37;;;5.70;99.90;;;;;;5033847;28;20263;-66
2020/12/02 05:56:34;;;;;;;21.20;11.30;;;5.80;99.90;;;;;;5034357;28;20175;-66
2020/12/02 05:59:01;;;;;;;18.47;11.20;;;5.80;99.90;;;;;;5033790;28;20184;-66
2020/12/02 06:01:29;;;;;;;20.70;11.03;;;5.80;99.90;;;;;;5033879;28;20178;-66
2020/12/02 06:03:56;;;;;;;19.73;11.40;;;5.80;99.90;;;;;;5033989;28;20206;-66
2020/12/02 06:06:23;;;;;;;18.43;10.33;;;5.80;99.90;;;;;;5032784;28;20843;-66
2020/12/02 06:08:50;;;;;;;30.00;14.23;;;5.70;99.90;;;;;;5034839;28;20199;-64
2020/12/02 06:11:16;;;;;;;28.07;14.73;;;5.80;99.90;;;;;;5034037;28;20180;-66
2020/12/02 06:13:42;;;;;;;31.47;16.20;;;5.80;99.90;;;;;;5034316;28;20706;-65
2020/12/02 06:16:10;;;;;;;25.07;14.10;;;5.90;99.90;;;;;;5033790;28;20590;-65
2020/12/02 06:18:37;;;;;;;21.97;13.10;;;5.90;99.90;;;;;;5033917;28;20172;-65
2020/12/02 06:21:05;;;;;;;20.60;11.00;;;5.90;99.90;;;;;;5033351;28;20229;-65
2020/12/02 06:23:45;;;;;;;21.77;11.50;;;5.90;99.90;;;;;;5033640;28;20213;-65
2020/12/02 06:26:11;;;;;;;20.10;11.87;;;5.90;99.90;;;;;;5033419;28;20187;-65
2020/12/02 06:28:37;;;;;;;19.17;11.67;;;5.90;99.90;;;;;;5033587;28;20191;-66
2020/12/02 06:31:05;;;;;;;19.70;12.07;;;5.90;99.90;;;;;;5033216;28;20180;-65
2020/12/02 06:33:34;;;;;;;20.00;11.87;;;5.80;99.90;;;;;;5033412;28;20207;-66
2020/12/02 06:36:31;;;;;;;17.63;11.10;;;5.80;99.90;;;;;;5033362;28;20179;-65
2020/12/02 06:39:08;;;;;;;19.90;12.40;;;5.70;99.90;;;;;;5024777;28;20188;-65
2020/12/02 06:41:38;;;;;;;21.23;12.67;;;5.70;99.90;;;;;;5025145;28;20183;-65
2020/12/02 06:44:30;;;;;;;20.03;11.90;;;5.70;99.90;;;;;;5033129;28;20211;-66
2020/12/02 06:46:55;;;;;;;24.90;13.13;;;5.70;99.90;;;;;;5013862;28;20715;-65
2020/12/02 06:49:32;;;;;;;20.23;12.07;;;5.70;99.90;;;;;;5014533;28;20212;-66
2020/12/02 06:51:59;;;;;;;21.00;12.60;;;5.70;99.90;;;;;;5032487;28;20164;-65
2020/12/02 06:54:29;;;;;;;20.47;11.40;;;5.70;99.90;;;;;;5032803;28;20567;-66
2020/12/02 06:57:03;;;;;;;23.30;13.50;;;5.80;99.90;;;;;;5033232;28;20168;-66
2020/12/02 06:59:29;;;;;;;20.63;12.70;;;5.80;99.90;;;;;;5032987;28;20563;-66
2020/12/02 07:02:02;;;;;;;22.17;13.00;;;5.80;99.90;;;;;;5032940;28;20282;-66
2020/12/02 07:04:35;;;;;;;20.37;12.90;;;5.80;99.90;;;;;;5031333;28;20210;-65
2020/12/02 07:07:00;;;;;;;18.63;11.90;;;5.80;99.90;;;;;;5013162;28;20168;-66
2020/12/02 07:09:26;;;;;;;21.80;13.43;;;5.70;99.90;;;;;;5024603;28;20214;-65
2020/12/02 07:11:58;;;;;;;26.33;13.50;;;5.60;99.90;;;;;;5032411;28;20642;-65
2020/12/02 07:14:34;;;;;;;20.93;12.40;;;5.60;99.90;;;;;;5032335;28;20195;-66
2020/12/02 07:17:03;;;;;;;21.87;12.83;;;5.60;99.90;;;;;;5032876;28;20172;-66
2020/12/02 07:19:36;;;;;;;24.83;13.43;;;5.60;99.90;;;;;;5032312;28;20182;-65
2020/12/02 07:22:31;;;;;;;26.53;14.17;;;5.60;99.90;;;;;;5032408;28;20209;-66
2020/12/02 07:25:04;;;;;;;22.27;13.47;;;5.60;99.90;;;;;;5009939;28;20188;-65
2020/12/02 07:27:30;;;;;;;21.23;14.20;;;5.50;99.90;;;;;;5032957;28;20245;-65
2020/12/02 07:29:57;;;;;;;25.13;15.10;;;5.60;99.90;;;;;;5033208;28;20679;-65
2020/12/02 07:32:23;;;;;;;25.10;15.10;;;5.60;99.90;;;;;;5032137;28;20211;-65
2020/12/02 07:34:49;;;;;;;19.23;12.73;;;5.60;99.90;;;;;;5032400;28;20836;-65
2020/12/02 07:37:18;;;;;;;19.97;14.13;;;5.60;99.90;;;;;;5032182;28;20171;-66
2020/12/02 07:39:59;;;;;;;25.83;14.03;;;5.60;99.90;;;;;;5032279;28;20171;-66
2020/12/02 07:42:34;;;;;;;22.63;13.83;;;5.60;99.90;;;;;;5031628;28;20655;-65
2020/12/02 07:45:05;;;;;;;23.43;13.97;;;5.60;99.90;;;;;;5032545;28;20201;-65
2020/12/02 07:47:33;;;;;;;23.37;13.27;;;5.60;99.90;;;;;;5031780;28;20191;-66
2020/12/02 07:50:16;;;;;;;21.77;13.63;;;5.50;99.90;;;;;;5030887;28;20256;-66
2020/12/02 07:52:46;;;;;;;26.20;13.90;;;5.60;99.90;;;;;;5030818;28;20178;-66
2020/12/02 07:55:22;;;;;;;19.37;12.27;;;5.60;99.90;;;;;;5032246;28;20604;-65
2020/12/02 07:57:49;;;;;;;22.33;14.20;;;5.60;99.90;;;;;;5031882;28;20546;-65
2020/12/02 08:00:47;;;;;;;24.90;14.17;;;5.70;99.90;;;;;;5031494;28;20171;-66
2020/12/02 08:03:36;;;;;;;23.10;14.37;;;5.80;99.90;;;;;;4997335;28;20219;-65
2020/12/02 08:06:10;;;;;;;21.57;13.50;;;5.70;99.90;;;;;;5031656;28;20543;-66
2020/12/02 08:08:35;;;;;;;21.73;12.90;;;5.70;99.90;;;;;;5030459;28;20202;-64
2020/12/02 08:11:16;;;;;;;25.47;14.97;;;5.70;99.90;;;;;;5031537;28;20178;-66
2020/12/02 08:13:54;;;;;;;19.87;13.73;;;5.80;99.90;;;;;;5031393;28;20187;-65
2020/12/02 08:16:25;;;;;;;19.93;12.80;;;5.80;99.90;;;;;;5031900;28;20637;-66
2020/12/02 08:18:53;;;;;;;25.33;13.57;;;5.70;99.90;;;;;;5031580;28;20175;-65
2020/12/02 08:21:21;;;;;;;19.83;13.03;;;5.70;99.90;;;;;;5031433;28;20714;-66
2020/12/02 08:24:25;;;;;;;20.17;12.43;;;5.70;99.90;;;;;;5031179;28;20201;-65
2020/12/02 08:26:52;;;;;;;21.37;12.83;;;5.70;99.90;;;;;;5031608;28;20262;-65
2020/12/02 08:29:24;;;;;;;16.47;11.90;;;5.70;99.90;;;;;;5031238;28;20195;-65
2020/12/02 08:32:04;;;;;;;23.37;12.43;;;5.70;99.90;;;;;;5031368;28;20171;-66
2020/12/02 08:34:32;;;;;;;19.33;12.43;;;5.70;99.90;;;;;;5030966;28;20191;-66
2020/12/02 08:37:19;;;;;;;18.67;12.90;;;5.60;99.90;;;;;;5031840;28;20262;-65
2020/12/02 08:39:47;;;;;;;25.77;15.00;;;5.70;99.90;;;;;;5031179;28;20179;-64
2020/12/02 08:42:24;;;;;;;24.10;14.47;;;5.70;99.90;;;;;;5031074;28;20176;-65
2020/12/02 08:45:10;;;;;;;23.50;14.07;;;5.70;99.90;;;;;;5031272;28;20595;-65
2020/12/02 08:47:36;;;;;;;22.27;14.07;;;5.70;99.90;;;;;;5031342;28;20171;-66
2020/12/02 08:50:05;;;;;;;28.30;16.57;;;5.70;99.90;;;;;;5030813;28;20611;-65
2020/12/02 08:52:30;;;;;;;21.63;15.27;;;5.80;99.90;;;;;;5031020;28;20179;-66
2020/12/02 08:54:56;;;;;;;23.43;16.07;;;5.80;99.90;;;;;;5031154;28;20707;-66
2020/12/02 08:57:21;;;;;;;24.67;15.07;;;5.80;99.90;;;;;;5031289;28;20671;-65
2020/12/02 08:59:47;;;;;;;23.13;15.57;;;5.80;99.90;;;;;;5030860;28;20218;-65
2020/12/02 09:02:15;;;;;;;23.00;13.37;;;5.70;99.90;;;;;;5033256;28;20180;-66
2020/12/02 09:04:46;;;;;;;22.50;14.60;;;5.70;99.90;;;;;;5035145;28;20196;-66
2020/12/02 09:07:13;;;;;;;21.17;14.13;;;5.70;99.90;;;;;;5035158;28;20499;-66
2020/12/02 09:09:39;;;;;;;23.20;14.83;;;5.70;99.90;;;;;;5035095;28;20199;-66
2020/12/02 09:12:05;;;;;;;25.77;15.40;;;5.60;99.90;;;;;;5034688;28;20234;-66
2020/12/02 09:14:31;;;;;;;20.43;13.97;;;5.60;99.90;;;;;;5034805;28;20672;-66
2020/12/02 09:16:56;;;;;;;24.10;14.77;;;5.70;99.90;;;;;;5036128;28;20601;-65
2020/12/02 09:19:22;;;;;;;19.20;14.17;;;5.80;99.90;;;;;;5035813;28;20688;-66
2020/12/02 09:21:48;;;;;;;20.20;14.17;;;5.80;99.90;;;;;;5034222;28;20213;-66
2020/12/02 09:24:15;;;;;;;19.27;13.33;;;5.90;99.90;;;;;;5034754;28;20245;-66
2020/12/02 09:26:41;;;;;;;22.13;15.47;;;5.90;99.90;;;;;;5034400;28;20184;-66
2020/12/02 09:29:08;;;;;;;20.70;15.67;;;6.00;99.90;;;;;;5034842;28;20199;-66
2020/12/02 09:31:34;;;;;;;19.07;14.00;;;6.10;99.90;;;;;;5034054;28;20203;-66
2020/12/02 09:34:03;;;;;;;21.60;14.50;;;6.10;99.90;;;;;;5034603;28;20188;-66
2020/12/02 09:36:29;;;;;;;19.37;13.20;;;6.20;99.90;;;;;;5034260;28;20182;-66
2020/12/02 09:38:55;;;;;;;17.53;13.40;;;6.30;99.90;;;;;;5034595;28;20600;-65
2020/12/02 09:41:52;;;;;;;19.03;12.63;;;6.30;99.90;;;;;;5034380;28;20202;-66
2020/12/02 09:44:20;;;;;;;13.60;10.60;;;6.40;99.90;;;;;;5034584;28;20234;-66
2020/12/02 09:46:59;;;;;;;20.13;12.70;;;6.30;99.90;;;;;;5034176;28;20269;-66
2020/12/02 09:49:25;;;;;;;18.27;13.53;;;6.30;99.90;;;;;;5034419;28;20233;-66
2020/12/02 09:52:15;;;;;;;15.47;11.87;;;6.30;99.90;;;;;;5033801;28;20245;-65
2020/12/02 09:54:43;;;;;;;13.83;10.73;;;6.40;99.90;;;;;;5033794;28;20194;-66
2020/12/02 09:57:24;;;;;;;15.83;11.20;;;6.30;99.90;;;;;;5033897;28;20172;-66
2020/12/02 09:59:59;;;;;;;17.07;10.57;;;6.30;99.90;;;;;;5033703;28;20194;-67
2020/12/02 10:02:37;;;;;;;15.13;11.47;;;6.30;99.90;;;;;;5033375;28;20186;-65
2020/12/02 10:05:22;;;;;;;14.03;10.60;;;6.30;99.90;;;;;;5033827;28;20171;-67
2020/12/02 10:08:10;;;;;;;14.43;9.77;;;6.20;99.90;;;;;;5013062;28;20548;-67
2020/12/02 10:10:53;;;;;;;11.27;9.13;;;6.00;99.90;;;;;;5015766;28;20238;-66
2020/12/02 10:13:37;;;;;;;13.13;10.57;;;6.00;99.90;;;;;;5033014;28;20202;-66
2020/12/02 10:16:29;;;;;;;14.80;11.13;;;6.00;99.90;;;;;;5033815;28;20576;-66
2020/12/02 10:19:06;;;;;;;11.50;9.57;;;6.00;99.90;;;;;;5033994;28;20176;-66
2020/12/02 10:21:32;;;;;;;13.27;8.90;;;5.90;99.90;;;;;;5033085;28;20182;-66
2020/12/02 10:24:22;;;;;;;10.93;8.10;;;5.70;99.90;;;;;;5033522;28;20204;-65
2020/12/02 10:27:09;;;;;;;13.53;8.57;;;5.70;99.90;;;;;;5033669;28;20172;-66
2020/12/02 10:30:24;;;;;;;12.53;8.97;;;5.60;99.90;;;;;;5033411;28;20203;-65
2020/12/02 10:33:03;;;;;;;13.50;9.40;;;5.60;99.90;;;;;;4991527;28;20564;-65
2020/12/02 10:35:32;;;;;;;11.47;9.03;;;5.60;99.90;;;;;;5028366;28;20183;-66
2020/12/02 10:38:03;;;;;;;12.00;9.80;;;5.70;99.90;;;;;;5033488;28;20198;-65
2020/12/02 10:40:39;;;;;;;12.87;9.67;;;5.80;99.90;;;;;;5032685;28;20241;-66
2020/12/02 10:43:26;;;;;;;12.93;9.47;;;5.90;99.90;;;;;;5033869;28;20241;-66
2020/12/02 10:45:56;;;;;;;12.03;10.07;;;6.00;99.90;;;;;;5033206;28;20183;-66
2020/12/02 10:48:27;;;;;;;14.23;11.03;;;6.10;99.90;;;;;;5033247;28;20179;-66
2020/12/02 10:50:54;;;;;;;15.30;11.13;;;6.10;99.90;;;;;;5032881;28;20183;-66
2020/12/02 10:53:24;;;;;;;14.77;10.50;;;6.10;99.90;;;;;;5031789;28;20191;-66
2020/12/02 10:55:51;;;;;;;14.43;11.53;;;6.00;99.90;;;;;;5032651;28;20179;-66
2020/12/02 10:58:21;;;;;;;16.03;11.70;;;5.90;99.90;;;;;;5033106;28;20175;-66
2020/12/02 11:00:55;;;;;;;15.53;11.30;;;5.90;99.90;;;;;;5032587;28;20229;-66
2020/12/02 11:03:33;;;;;;;14.23;10.87;;;6.00;99.90;;;;;;5033276;28;20683;-66
2020/12/02 11:06:26;;;;;;;12.50;10.17;;;6.10;99.90;;;;;;5032501;28;20547;-66
2020/12/02 11:09:17;;;;;;;15.30;10.60;;;6.20;99.90;;;;;;5032863;28;20257;-66
2020/12/02 11:11:51;;;;;;;15.33;10.97;;;6.30;99.90;;;;;;5029151;28;20501;-66
2020/12/02 11:14:20;;;;;;;17.57;11.73;;;6.30;99.90;;;;;;5032341;28;20245;-66
2020/12/02 11:17:19;;;;;;;13.23;9.90;;;6.40;99.90;;;;;;5032662;28;20222;-66
2020/12/02 11:19:51;;;;;;;12.40;9.77;;;6.40;99.90;;;;;;5031832;28;20510;-66
2020/12/02 11:22:32;;;;;;;12.57;10.20;;;6.50;99.90;;;;;;5032647;28;20172;-66
2020/12/02 11:25:10;;;;;;;11.23;8.90;;;6.40;99.90;;;;;;5032541;28;20179;-67
2020/12/02 11:27:36;;;;;;;9.60;8.43;;;6.40;99.90;;;;;;5032641;28;20225;-66
2020/12/02 11:30:07;;;;;;;8.57;7.60;;;6.50;99.90;;;;;;5032301;28;20195;-66
2020/12/02 11:32:35;;;;;;;9.50;7.87;;;6.50;99.90;;;;;;5032251;28;20182;-66
2020/12/02 11:35:20;;;;;;;11.17;7.97;;;6.60;99.90;;;;;;5032573;28;20179;-66
2020/12/02 11:38:10;;;;;;;10.13;7.60;;;6.60;99.90;;;;;;5032346;28;20688;-66
2020/12/02 11:40:56;;;;;;;9.00;7.23;;;6.70;99.90;;;;;;5031928;28;20179;-67
2020/12/02 11:43:32;;;;;;;9.87;7.97;;;6.60;99.90;;;;;;5032154;28;20573;-66
2020/12/02 11:45:58;;;;;;;8.40;6.90;;;6.60;99.90;;;;;;5032327;28;20171;-66
2020/12/02 11:48:35;;;;;;;10.53;7.80;;;6.60;99.90;;;;;;5032020;28;20214;-66
2020/12/02 11:51:17;;;;;;;9.63;7.27;;;6.70;99.90;;;;;;5032076;28;20181;-66
2020/12/02 11:53:49;;;;;;;10.47;8.03;;;6.70;99.90;;;;;;5032491;28;20191;-66
2020/12/02 11:56:31;;;;;;;9.43;7.50;;;6.70;99.90;;;;;;5032023;28;20168;-66
2020/12/02 11:59:06;;;;;;;10.27;7.57;;;6.80;99.90;;;;;;5032293;28;20201;-66
2020/12/02 12:01:49;;;;;;;8.67;7.63;;;6.80;99.90;;;;;;5031565;28;20178;-66
2020/12/02 12:04:32;;;;;;;9.17;7.53;;;6.80;99.90;;;;;;5032029;28;20195;-66
2020/12/02 12:07:00;;;;;;;8.97;7.43;;;6.80;99.90;;;;;;5032018;28;20183;-66
2020/12/02 12:09:48;;;;;;;9.17;8.03;;;6.80;99.90;;;;;;5031740;28;20704;-66
2020/12/02 12:12:38;;;;;;;9.40;7.47;;;6.80;99.90;;;;;;5031685;28;20172;-66
2020/12/02 12:15:16;;;;;;;8.53;7.07;;;6.80;99.90;;;;;;5031799;28;20170;-66
2020/12/02 12:17:45;;;;;;;8.40;7.40;;;6.80;99.90;;;;;;5031633;28;20178;-67
2020/12/02 12:20:20;;;;;;;9.20;7.60;;;6.90;99.90;;;;;;5030522;28;20175;-66
2020/12/02 12:23:17;;;;;;;11.70;7.77;;;6.90;99.90;;;;;;5030662;28;20175;-65
2020/12/02 12:25:43;;;;;;;10.13;8.43;;;6.80;99.90;;;;;;4982525;28;20333;-66
2020/12/02 12:28:18;;;;;;;12.50;8.27;;;6.90;99.90;;;;;;5029850;28;20179;-66
2020/12/02 12:30:43;;;;;;;10.27;8.60;;;6.80;99.90;;;;;;5030921;28;20603;-66
2020/12/02 12:33:18;;;;;;;10.17;8.10;;;6.70;99.90;;;;;;5031312;28;20195;-66
2020/12/02 12:35:53;;;;;;;10.13;8.03;;;6.70;99.90;;;;;;5030538;28;20608;-66
2020/12/02 12:38:47;;;;;;;14.10;10.13;;;6.60;99.90;;;;;;5030038;28;20171;-66
2020/12/02 12:41:23;;;;;;;14.83;11.17;;;6.70;99.90;;;;;;5029966;28;20615;-66
2020/12/02 12:44:00;;;;;;;18.27;11.23;;;6.80;99.90;;;;;;5031233;28;20290;-66
2020/12/02 12:46:40;;;;;;;15.70;11.27;;;6.80;99.90;;;;;;5030431;28;20537;-66
2020/12/02 12:49:11;;;;;;;12.43;9.87;;;6.80;99.90;;;;;;5031461;28;20187;-66
2020/12/02 12:51:38;;;;;;;11.50;9.20;;;6.80;99.90;;;;;;5030783;28;20179;-66
2020/12/02 12:54:12;;;;;;;10.50;8.67;;;6.80;99.90;;;;;;5031298;28;20195;-66
2020/12/02 12:56:40;;;;;;;10.90;9.10;;;6.80;99.90;;;;;;5028600;28;20221;-66
2020/12/02 12:59:10;;;;;;;12.10;9.43;;;6.70;99.90;;;;;;5031349;28;20171;-66
2020/12/02 13:01:38;;;;;;;11.83;9.30;;;6.60;99.90;;;;;;5029576;28;20194;-67
2020/12/02 13:04:12;;;;;;;14.23;9.37;;;6.60;99.90;;;;;;5030922;28;20195;-66
2020/12/02 13:07:02;;;;;;;13.00;9.10;;;6.50;99.90;;;;;;5031014;28;20222;-67